createdAt,value
2023-02-22T00:02:29.234Z,21.48
2023-02-22T00:07:33.974Z,23.45
2023-02-22T00:12:39.805Z,45.13
2023-02-22T00:17:44.246Z,21.23
2023-02-22T00:22:49.625Z,35.28
2023-02-22T00:27:56.713Z,52.15
2023-02-22T00:33:01.714Z,45.97
2023-02-22T00:38:06.486Z,24.73
2023-02-22T00:43:13.741Z,27.35
2023-02-22T00:48:18.582Z,21.10
2023-02-22T00:53:24.049Z,26.63
2023-02-22T00:58:30.152Z,24.52
2023-02-22T01:03:35.543Z,27.23
2023-02-22T01:08:39.982Z,27.88
2023-02-22T01:13:46.563Z,38.60
2023-02-22T01:18:51.073Z,44.30
2023-02-22T01:23:55.948Z,44.45
2023-02-22T01:29:01.821Z,31.27
2023-02-22T01:34:06.058Z,33.00
2023-02-22T01:39:10.809Z,57.75
2023-02-22T01:44:29.050Z,38.65
2023-02-22T01:49:40.756Z,28.48
2023-02-22T01:54:48.973Z,26.92
2023-02-22T01:59:59.873Z,25.13
2023-02-22T02:05:08.474Z,28.33
2023-02-22T02:10:15.734Z,30.25
2023-02-22T02:15:29.077Z,23.47
2023-02-22T02:20:43.860Z,25.38
2023-02-22T02:26:21.712Z,27.77
2023-02-22T02:32:16.930Z,24.40
2023-02-22T02:37:31.498Z,19.45
2023-02-22T02:42:41.079Z,20.50
2023-02-22T02:47:51.790Z,20.45
2023-02-22T02:53:02.711Z,21.20
2023-02-22T02:58:08.742Z,22.88
2023-02-22T03:03:34.612Z,27.08
2023-02-22T03:08:45.319Z,26.10
2023-02-22T03:13:57.076Z,22.15
2023-02-22T03:19:12.544Z,24.98
2023-02-22T03:24:23.740Z,22.58
2023-02-22T03:29:35.691Z,26.70
2023-02-22T03:34:46.304Z,26.13
2023-02-22T03:39:56.289Z,25.13
2023-02-22T03:45:02.934Z,30.77
2023-02-22T03:50:12.914Z,28.15
2023-02-22T04:00:26.261Z,27.40
2023-02-22T04:05:30.515Z,29.73
2023-02-22T04:10:38.238Z,28.02
2023-02-22T04:15:42.674Z,29.48
2023-02-22T04:20:48.425Z,28.38
2023-02-22T04:26:07.077Z,27.73
2023-02-22T04:31:11.912Z,28.05
2023-02-22T04:36:16.662Z,32.05
2023-02-22T04:41:25.475Z,29.15
2023-02-22T04:46:31.669Z,31.30
2023-02-22T04:51:37.120Z,35.53
2023-02-22T04:56:48.714Z,31.35
2023-02-22T05:01:53.741Z,30.85
2023-02-22T05:06:58.327Z,36.53
2023-02-22T05:12:03.932Z,35.90
2023-02-22T05:17:08.112Z,37.10
2023-02-22T05:22:12.599Z,34.90
2023-02-22T05:27:18.242Z,33.90
2023-02-22T05:32:22.652Z,37.83
2023-02-22T05:37:27.684Z,35.53
2023-02-22T05:42:33.376Z,39.40
2023-02-22T05:47:37.546Z,38.35
2023-02-22T05:52:42.359Z,40.85
2023-02-22T05:57:48.820Z,49.50
2023-02-22T06:02:58.131Z,43.50
2023-02-22T06:08:03.068Z,42.47
2023-02-22T06:13:08.932Z,41.95
2023-02-22T06:18:13.114Z,65.10
2023-02-22T06:23:17.424Z,46.17
2023-02-22T06:28:24.124Z,48.50
2023-02-22T06:33:28.477Z,51.03
2023-02-22T06:38:33.452Z,48.78
2023-02-22T06:43:39.206Z,45.42
2023-02-22T06:48:44.696Z,40.90
2023-02-22T06:53:48.951Z,40.42
2023-02-22T06:58:55.510Z,46.13
2023-02-22T07:04:00.096Z,50.83
2023-02-22T07:09:05.241Z,46.55
2023-02-22T07:14:11.501Z,45.17
2023-02-22T07:19:15.992Z,40.40
2023-02-22T07:24:20.409Z,41.13
2023-02-22T07:29:26.251Z,40.47
2023-02-22T07:34:31.015Z,38.78
2023-02-22T07:39:35.691Z,42.10
2023-02-22T07:44:42.290Z,36.75
2023-02-22T07:49:46.772Z,35.78
2023-02-22T07:54:51.313Z,41.80
2023-02-22T07:59:56.889Z,32.17
2023-02-22T08:05:01.459Z,30.88
2023-02-22T08:10:07.963Z,29.67
2023-02-22T08:15:19.695Z,31.55
2023-02-22T08:20:24.108Z,32.28
2023-02-22T08:25:30.451Z,30.05
2023-02-22T08:30:40.059Z,31.85
2023-02-22T08:35:45.064Z,30.88
2023-02-22T08:40:50.718Z,56.22
2023-02-22T08:45:57.841Z,27.85
2023-02-22T08:51:02.390Z,26.77
2023-02-22T08:56:07.349Z,36.63
2023-02-22T09:01:19.251Z,26.77
2023-02-22T09:06:26.285Z,30.73
2023-02-22T09:11:30.498Z,31.45
2023-02-22T09:16:38.301Z,27.15
2023-02-22T09:21:42.831Z,32.15
2023-02-22T09:26:53.618Z,34.72
2023-02-22T09:31:59.490Z,29.48
2023-02-22T09:37:05.217Z,31.85
2023-02-22T09:42:14.923Z,30.30
2023-02-22T09:52:29.460Z,27.00
2023-02-22T09:57:40.376Z,27.25
2023-02-22T10:02:53.937Z,27.20
2023-02-22T10:08:06.182Z,21.67
2023-02-22T10:13:22.695Z,22.48
2023-02-22T10:18:48.121Z,29.98
2023-02-22T10:24:02.523Z,22.27
2023-02-22T10:29:18.215Z,20.02
2023-02-22T10:34:27.352Z,18.45
2023-02-22T10:39:33.827Z,22.00
2023-02-22T10:44:39.954Z,17.90
2023-02-22T10:49:50.763Z,15.75
2023-02-22T10:55:13.581Z,18.48
2023-02-22T11:00:26.511Z,15.05
2023-02-22T11:05:37.485Z,16.02
2023-02-22T11:10:43.606Z,15.85
2023-02-22T11:15:48.252Z,42.33
2023-02-22T11:21:02.151Z,32.05
2023-02-22T11:26:10.125Z,16.92
2023-02-22T11:31:18.685Z,11.80
2023-02-22T11:36:41.113Z,13.20
2023-02-22T11:41:46.649Z,12.20
2023-02-22T11:46:51.055Z,19.95
2023-02-22T11:52:26.141Z,18.77
2023-02-22T11:57:52.822Z,12.18
2023-02-22T12:03:13.848Z,18.42
2023-02-22T12:08:31.585Z,8.85
2023-02-22T12:13:51.443Z,7.65
2023-02-22T12:19:12.866Z,12.38
2023-02-22T12:24:24.675Z,70.40
2023-02-22T12:29:37.797Z,12.40
2023-02-22T12:34:47.965Z,16.08
2023-02-22T12:40:01.246Z,10.55
2023-02-22T12:45:17.059Z,12.18
2023-02-22T12:50:24.505Z,13.55
2023-02-22T12:55:35.046Z,17.33
2023-02-22T13:00:46.387Z,13.23
2023-02-22T13:05:58.525Z,14.98
2023-02-22T13:11:16.606Z,14.82
2023-02-22T13:16:33.939Z,10.98
2023-02-22T13:21:49.578Z,18.08
2023-02-22T13:27:00.404Z,17.52
2023-02-22T13:32:30.738Z,16.45
2023-02-22T13:38:03.195Z,12.23
2023-02-22T13:43:28.516Z,8.35
2023-02-22T13:48:54.238Z,8.25
2023-02-22T13:54:04.766Z,7.43
2023-02-22T13:59:25.350Z,46.80
2023-02-22T14:04:40.607Z,221.93
2023-02-22T14:09:49.463Z,246.65
2023-02-22T14:15:29.295Z,99.97
2023-02-22T14:20:36.918Z,26.20
2023-02-22T14:25:43.860Z,49.20
2023-02-22T14:30:49.853Z,22.90
2023-02-22T14:35:54.593Z,41.22
2023-02-22T14:41:03.658Z,24.95
2023-02-22T14:46:13.641Z,51.27
2023-02-22T14:51:25.131Z,9.25
2023-02-22T14:56:39.669Z,8.10
2023-02-22T15:01:58.688Z,8.27
2023-02-22T15:07:21.707Z,10.15
2023-02-22T15:12:30.365Z,12.30
2023-02-22T15:17:36.262Z,8.40
2023-02-22T15:22:40.697Z,9.27
2023-02-22T15:27:48.075Z,9.18
2023-02-22T15:33:04.057Z,7.90
2023-02-22T15:38:20.467Z,8.88
2023-02-22T15:43:28.656Z,8.70
2023-02-22T15:48:37.423Z,11.98
2023-02-22T15:53:44.582Z,11.68
2023-02-22T15:58:49.770Z,14.90
2023-02-22T16:03:58.780Z,16.80
2023-02-22T16:09:10.018Z,13.60
2023-02-22T16:14:29.417Z,26.27
2023-02-22T16:19:42.718Z,16.85
2023-02-22T16:24:52.539Z,19.05
2023-02-22T16:30:23.314Z,42.97
2023-02-22T16:35:30.528Z,60.53
2023-02-22T16:40:36.966Z,45.72
2023-02-22T16:45:42.564Z,36.08
2023-02-22T16:50:51.297Z,34.17
2023-02-22T16:56:00.729Z,26.00
2023-02-22T17:01:05.336Z,23.60
2023-02-22T17:06:11.772Z,19.88
2023-02-22T17:11:16.366Z,20.92
2023-02-22T17:16:21.305Z,20.98
2023-02-22T17:21:27.625Z,20.65
2023-02-22T17:26:32.099Z,21.15
2023-02-22T17:31:36.857Z,23.80
2023-02-22T17:36:42.858Z,27.25
2023-02-22T17:41:48.191Z,25.23
2023-02-22T17:46:53.164Z,23.00
2023-02-22T17:51:58.805Z,22.02
2023-02-22T17:57:03.166Z,31.45
2023-02-22T18:02:07.842Z,31.35
2023-02-22T18:07:14.523Z,34.20
2023-02-22T18:12:18.657Z,32.00
2023-02-22T18:17:23.026Z,33.40
2023-02-22T18:22:28.999Z,35.83
2023-02-22T18:27:33.117Z,33.67
2023-02-22T18:32:37.315Z,32.03
2023-02-22T18:37:44.652Z,33.97
2023-02-22T18:42:49.000Z,35.65
2023-02-22T18:47:53.371Z,36.30
2023-02-22T18:52:59.121Z,44.58
2023-02-22T18:58:04.855Z,38.25
2023-02-22T19:03:10.422Z,39.55
2023-02-22T19:08:16.372Z,37.10
2023-02-22T19:13:21.480Z,41.28
2023-02-22T19:18:25.677Z,39.90
2023-02-22T19:23:34.490Z,39.70
2023-02-22T19:28:40.342Z,38.55
2023-02-22T19:33:45.018Z,37.67
2023-02-22T19:38:50.842Z,34.78
2023-02-22T19:43:56.224Z,38.38
2023-02-22T19:49:02.134Z,46.20
2023-02-22T19:54:13.046Z,55.13
2023-02-22T19:59:21.456Z,62.53
2023-02-22T20:04:30.769Z,64.53
2023-02-22T20:09:39.814Z,60.75
2023-02-22T20:14:44.371Z,55.38
2023-02-22T20:19:50.652Z,56.10
2023-02-22T20:24:56.767Z,57.28
2023-02-22T20:30:01.081Z,55.40
2023-02-22T20:35:05.924Z,55.60
2023-02-22T20:40:12.320Z,52.97
2023-02-22T20:45:20.103Z,90.60
2023-02-22T20:50:24.225Z,83.55
2023-02-22T20:55:30.647Z,207.77
2023-02-22T21:00:35.974Z,171.43
2023-02-22T21:05:44.233Z,340.92
2023-02-22T21:10:50.543Z,82.18
2023-02-22T21:15:55.045Z,67.38
2023-02-22T21:21:03.417Z,61.35
2023-02-22T21:26:15.795Z,60.40
2023-02-22T21:31:22.255Z,47.53
2023-02-22T21:36:28.088Z,56.22
2023-02-22T21:41:34.191Z,51.78
2023-02-22T21:46:39.274Z,52.70
2023-02-22T21:51:44.880Z,52.67
2023-02-22T21:56:50.994Z,53.03
2023-02-22T22:01:56.781Z,95.53
2023-02-22T22:07:04.012Z,167.55
2023-02-22T22:12:11.880Z,94.43
2023-02-22T22:17:16.109Z,87.38
2023-02-22T22:22:20.627Z,101.40
2023-02-22T22:27:26.183Z,81.60
2023-02-22T22:32:30.986Z,132.23
2023-02-22T22:37:35.215Z,43.38
2023-02-22T22:42:40.910Z,70.50
2023-02-22T22:47:46.949Z,66.72
2023-02-22T22:52:51.064Z,91.57
2023-02-22T22:57:56.719Z,37.75
2023-02-22T23:03:05.704Z,68.18
2023-02-22T23:08:13.026Z,34.95
2023-02-22T23:13:20.298Z,53.33
2023-02-22T23:18:24.489Z,56.75
2023-02-22T23:23:29.450Z,38.42
2023-02-22T23:28:35.234Z,46.28
2023-02-22T23:33:39.610Z,54.50
2023-02-22T23:38:44.450Z,57.17
2023-02-22T23:43:51.926Z,34.25
2023-02-22T23:49:01.779Z,64.60
2023-02-22T23:54:08.109Z,49.58
2023-02-22T23:59:14.564Z,26.65
